sensor_id;sensor_type;location;lat;lon;timestamp;pressure;altitude;pressure_sealevel;temperature;humidity
38880;BME280;25887;30.194;-97.880;2023-12-20T00:01:02;99020.38;;;18.56;39.79
38880;BME280;25887;30.194;-97.880;2023-12-20T00:03:28;99013.53;;;18.52;39.94
38880;BME280;25887;30.194;-97.880;2023-12-20T00:05:54;99018.84;;;18.47;39.76
38880;BME280;25887;30.194;-97.880;2023-12-20T00:08:21;99007.63;;;18.44;39.86
38880;BME280;25887;30.194;-97.880;2023-12-20T00:10:49;99011.19;;;18.40;39.93
38880;BME280;25887;30.194;-97.880;2023-12-20T00:13:15;99010.44;;;18.34;40.15
38880;BME280;25887;30.194;-97.880;2023-12-20T00:15:41;99018.31;;;18.31;40.12
38880;BME280;25887;30.194;-97.880;2023-12-20T00:18:08;99017.53;;;18.26;40.27
38880;BME280;25887;30.194;-97.880;2023-12-20T00:20:34;99012.38;;;18.25;40.38
38880;BME280;25887;30.194;-97.880;2023-12-20T00:23:00;99009.88;;;18.20;40.43
38880;BME280;25887;30.194;-97.880;2023-12-20T00:25:28;99017.75;;;18.17;40.41
38880;BME280;25887;30.194;-97.880;2023-12-20T00:27:54;99016.94;;;18.15;40.50
38880;BME280;25887;30.194;-97.880;2023-12-20T00:30:20;99014.38;;;18.14;40.60
38880;BME280;25887;30.194;-97.880;2023-12-20T00:32:47;99008.34;;;18.10;40.78
38880;BME280;25887;30.194;-97.880;2023-12-20T00:35:14;99005.78;;;18.08;41.01
38880;BME280;25887;30.194;-97.880;2023-12-20T00:37:40;99007.53;;;18.08;41.01
38880;BME280;25887;30.194;-97.880;2023-12-20T00:40:07;99009.31;;;18.06;40.92
38880;BME280;25887;30.194;-97.880;2023-12-20T00:42:33;99016.22;;;18.07;41.02
38880;BME280;25887;30.194;-97.880;2023-12-20T00:45:00;99021.44;;;18.07;41.18
38880;BME280;25887;30.194;-97.880;2023-12-20T00:47:26;99027.47;;;18.07;41.01
38880;BME280;25887;30.194;-97.880;2023-12-20T00:49:52;99028.41;;;18.03;41.30
38880;BME280;25887;30.194;-97.880;2023-12-20T00:52:20;99036.19;;;18.05;41.30
38880;BME280;25887;30.194;-97.880;2023-12-20T00:54:48;99030.97;;;18.05;41.61
38880;BME280;25887;30.194;-97.880;2023-12-20T00:57:14;99034.47;;;18.04;41.42
38880;BME280;25887;30.194;-97.880;2023-12-20T00:59:41;99036.25;;;18.02;41.64
38880;BME280;25887;30.194;-97.880;2023-12-20T01:02:07;99036.31;;;17.99;41.72
38880;BME280;25887;30.194;-97.880;2023-12-20T01:04:34;99032.00;;;17.98;41.80
38880;BME280;25887;30.194;-97.880;2023-12-20T01:07:00;99040.75;;;17.94;41.90
38880;BME280;25887;30.194;-97.880;2023-12-20T01:09:27;99042.50;;;17.93;41.95
38880;BME280;25887;30.194;-97.880;2023-12-20T01:11:54;99046.00;;;17.91;42.12
38880;BME280;25887;30.194;-97.880;2023-12-20T01:14:20;99055.59;;;17.87;41.90
38880;BME280;25887;30.194;-97.880;2023-12-20T01:16:47;99045.31;;;17.83;42.04
38880;BME280;25887;30.194;-97.880;2023-12-20T01:19:13;99042.69;;;17.81;42.16
38880;BME280;25887;30.194;-97.880;2023-12-20T01:21:40;99048.81;;;17.78;42.08
38880;BME280;25887;30.194;-97.880;2023-12-20T01:24:07;99054.91;;;17.77;42.38
38880;BME280;25887;30.194;-97.880;2023-12-20T01:26:33;99051.47;;;17.77;42.37
38880;BME280;25887;30.194;-97.880;2023-12-20T01:28:59;99042.84;;;17.75;42.42
38880;BME280;25887;30.194;-97.880;2023-12-20T01:31:26;99047.19;;;17.74;42.30
38880;BME280;25887;30.194;-97.880;2023-12-20T01:33:53;99045.44;;;17.75;42.48
38880;BME280;25887;30.194;-97.880;2023-12-20T01:36:19;99048.03;;;17.73;42.59
38880;BME280;25887;30.194;-97.880;2023-12-20T01:38:45;99046.34;;;17.72;42.63
38880;BME280;25887;30.194;-97.880;2023-12-20T01:41:13;99052.38;;;17.73;42.74
38880;BME280;25887;30.194;-97.880;2023-12-20T01:43:40;99044.63;;;17.70;42.80
38880;BME280;25887;30.194;-97.880;2023-12-20T01:46:06;99048.97;;;17.69;42.79
38880;BME280;25887;30.194;-97.880;2023-12-20T01:48:33;99047.28;;;17.67;43.21
38880;BME280;25887;30.194;-97.880;2023-12-20T01:51:00;99050.78;;;17.64;43.29
38880;BME280;25887;30.194;-97.880;2023-12-20T01:53:27;99054.25;;;17.63;43.31
38880;BME280;25887;30.194;-97.880;2023-12-20T01:55:55;99059.47;;;17.63;43.48
38880;BME280;25887;30.194;-97.880;2023-12-20T01:58:23;99062.09;;;17.62;43.52
38880;BME280;25887;30.194;-97.880;2023-12-20T02:00:50;99060.41;;;17.59;43.64
38880;BME280;25887;30.194;-97.880;2023-12-20T02:03:18;99063.00;;;17.59;43.80
38880;BME280;25887;30.194;-97.880;2023-12-20T02:05:45;99057.00;;;17.55;43.76
38880;BME280;25887;30.194;-97.880;2023-12-20T02:08:12;99059.63;;;17.54;43.83
38880;BME280;25887;30.194;-97.880;2023-12-20T02:10:39;99055.31;;;17.53;43.97
38880;BME280;25887;30.194;-97.880;2023-12-20T02:13:06;99047.56;;;17.50;44.03
38880;BME280;25887;30.194;-97.880;2023-12-20T02:15:32;99050.19;;;17.48;44.14
38880;BME280;25887;30.194;-97.880;2023-12-20T02:17:59;99058.00;;;17.47;44.43
38880;BME280;25887;30.194;-97.880;2023-12-20T02:20:25;99058.00;;;17.47;44.18
38880;BME280;25887;30.194;-97.880;2023-12-20T02:22:51;99060.66;;;17.45;44.33
38880;BME280;25887;30.194;-97.880;2023-12-20T02:25:19;99052.88;;;17.44;44.46
38880;BME280;25887;30.194;-97.880;2023-12-20T02:27:46;99048.53;;;17.43;45.02
38880;BME280;25887;30.194;-97.880;2023-12-20T02:30:12;99047.72;;;17.41;44.88
38880;BME280;25887;30.194;-97.880;2023-12-20T02:32:38;99053.78;;;17.41;45.16
38880;BME280;25887;30.194;-97.880;2023-12-20T02:35:05;99065.91;;;17.41;45.20
38880;BME280;25887;30.194;-97.880;2023-12-20T02:37:32;99054.66;;;17.40;45.46
38880;BME280;25887;30.194;-97.880;2023-12-20T02:40:00;99067.69;;;17.39;45.46
38880;BME280;25887;30.194;-97.880;2023-12-20T02:42:26;99066.84;;;17.37;45.77
38880;BME280;25887;30.194;-97.880;2023-12-20T02:44:53;99068.59;;;17.35;46.06
38880;BME280;25887;30.194;-97.880;2023-12-20T02:47:19;99072.94;;;17.34;46.00
38880;BME280;25887;30.194;-97.880;2023-12-20T02:49:45;99085.91;;;17.34;45.98
38880;BME280;25887;30.194;-97.880;2023-12-20T02:52:11;99078.16;;;17.33;46.18
38880;BME280;25887;30.194;-97.880;2023-12-20T02:54:38;99079.94;;;17.31;46.46
38880;BME280;25887;30.194;-97.880;2023-12-20T02:57:04;99079.94;;;17.31;46.39
38880;BME280;25887;30.194;-97.880;2023-12-20T02:59:30;99073.91;;;17.29;46.75
38880;BME280;25887;30.194;-97.880;2023-12-20T03:01:57;99082.59;;;17.27;46.81
38880;BME280;25887;30.194;-97.880;2023-12-20T03:04:23;99084.34;;;17.25;47.36
38880;BME280;25887;30.194;-97.880;2023-12-20T03:06:49;99086.97;;;17.24;47.13
38880;BME280;25887;30.194;-97.880;2023-12-20T03:09:16;99077.50;;;17.21;47.57
38880;BME280;25887;30.194;-97.880;2023-12-20T03:11:42;99084.38;;;17.22;48.01
38880;BME280;25887;30.194;-97.880;2023-12-20T03:14:08;99081.81;;;17.19;48.20
38880;BME280;25887;30.194;-97.880;2023-12-20T03:16:34;99078.41;;;17.17;48.24
38880;BME280;25887;30.194;-97.880;2023-12-20T03:19:01;99069.81;;;17.14;48.61
38880;BME280;25887;30.194;-97.880;2023-12-20T03:21:27;99078.50;;;17.13;48.80
38880;BME280;25887;30.194;-97.880;2023-12-20T03:23:54;99070.69;;;17.13;49.24
38880;BME280;25887;30.194;-97.880;2023-12-20T03:26:21;99075.03;;;17.12;49.07
38880;BME280;25887;30.194;-97.880;2023-12-20T03:28:48;99077.66;;;17.09;49.27
38880;BME280;25887;30.194;-97.880;2023-12-20T03:31:14;99075.91;;;17.10;49.45
38880;BME280;25887;30.194;-97.880;2023-12-20T03:33:40;99071.63;;;17.09;49.51
38880;BME280;25887;30.194;-97.880;2023-12-20T03:36:07;99069.91;;;17.08;49.40
38880;BME280;25887;30.194;-97.880;2023-12-20T03:38:33;99063.84;;;17.07;49.58
38880;BME280;25887;30.194;-97.880;2023-12-20T03:40:59;99069.03;;;17.07;49.79
38880;BME280;25887;30.194;-97.880;2023-12-20T03:43:26;99068.22;;;17.05;50.11
38880;BME280;25887;30.194;-97.880;2023-12-20T03:45:52;99067.38;;;17.05;49.92
38880;BME280;25887;30.194;-97.880;2023-12-20T03:48:18;99069.06;;;17.04;50.18
38880;BME280;25887;30.194;-97.880;2023-12-20T03:50:44;99066.50;;;17.03;50.35
38880;BME280;25887;30.194;-97.880;2023-12-20T03:53:11;99068.25;;;17.02;50.54
38880;BME280;25887;30.194;-97.880;2023-12-20T03:55:37;99072.56;;;17.03;50.45
38880;BME280;25887;30.194;-97.880;2023-12-20T03:58:03;99073.44;;;17.02;50.41
38880;BME280;25887;30.194;-97.880;2023-12-20T04:00:30;99073.44;;;17.02;50.51
38880;BME280;25887;30.194;-97.880;2023-12-20T04:02:56;99074.34;;;16.99;50.88
38880;BME280;25887;30.194;-97.880;2023-12-20T04:05:22;99070.00;;;17.00;50.93
38880;BME280;25887;30.194;-97.880;2023-12-20T04:07:48;99075.22;;;17.00;50.62
38880;BME280;25887;30.194;-97.880;2023-12-20T04:10:16;99074.38;;;16.98;50.76
38880;BME280;25887;30.194;-97.880;2023-12-20T04:12:42;99079.56;;;16.98;51.00
38880;BME280;25887;30.194;-97.880;2023-12-20T04:15:08;99083.91;;;16.97;50.99
38880;BME280;25887;30.194;-97.880;2023-12-20T04:17:36;99083.91;;;16.96;51.13
38880;BME280;25887;30.194;-97.880;2023-12-20T04:20:22;99084.78;;;16.96;51.17
38880;BME280;25887;30.194;-97.880;2023-12-20T04:22:48;99084.78;;;16.95;51.22
38880;BME280;25887;30.194;-97.880;2023-12-20T04:25:14;99095.16;;;16.95;51.06
38880;BME280;25887;30.194;-97.880;2023-12-20T04:27:40;99097.75;;;16.95;51.26
38880;BME280;25887;30.194;-97.880;2023-12-20T04:30:07;99090.88;;;16.94;51.52
38880;BME280;25887;30.194;-97.880;2023-12-20T04:32:34;99098.72;;;16.91;51.58
38880;BME280;25887;30.194;-97.880;2023-12-20T04:35:01;99099.56;;;16.91;51.50
38880;BME280;25887;30.194;-97.880;2023-12-20T04:37:27;99098.72;;;16.91;51.41
38880;BME280;25887;30.194;-97.880;2023-12-20T04:39:53;99093.53;;;16.91;51.69
38880;BME280;25887;30.194;-97.880;2023-12-20T04:42:22;99099.59;;;16.90;51.66
38880;BME280;25887;30.194;-97.880;2023-12-20T04:44:48;99100.47;;;16.89;51.75
38880;BME280;25887;30.194;-97.880;2023-12-20T04:47:14;99094.44;;;16.85;52.04
38880;BME280;25887;30.194;-97.880;2023-12-20T04:49:40;99091.88;;;16.84;52.24
38880;BME280;25887;30.194;-97.880;2023-12-20T04:52:07;99105.72;;;16.84;52.13
38880;BME280;25887;30.194;-97.880;2023-12-20T04:54:33;99105.75;;;16.83;51.99
38880;BME280;25887;30.194;-97.880;2023-12-20T04:56:59;99101.44;;;16.82;52.03
38880;BME280;25887;30.194;-97.880;2023-12-20T04:59:25;99110.94;;;16.83;51.86
38880;BME280;25887;30.194;-97.880;2023-12-20T05:01:52;99106.63;;;16.82;52.25
38880;BME280;25887;30.194;-97.880;2023-12-20T05:04:21;99112.69;;;16.79;52.13
38880;BME280;25887;30.194;-97.880;2023-12-20T05:06:47;99102.34;;;16.78;52.27
38880;BME280;25887;30.194;-97.880;2023-12-20T05:09:15;99097.19;;;16.76;52.48
38880;BME280;25887;30.194;-97.880;2023-12-20T05:11:42;99101.50;;;16.76;52.35
38880;BME280;25887;30.194;-97.880;2023-12-20T05:14:08;99100.69;;;16.74;52.63
38880;BME280;25887;30.194;-97.880;2023-12-20T05:16:34;99096.34;;;16.73;52.35
38880;BME280;25887;30.194;-97.880;2023-12-20T05:19:01;99098.09;;;16.70;52.31
38880;BME280;25887;30.194;-97.880;2023-12-20T05:21:32;99096.41;;;16.69;52.52
38880;BME280;25887;30.194;-97.880;2023-12-20T05:24:01;99098.13;;;16.69;52.58
38880;BME280;25887;30.194;-97.880;2023-12-20T05:26:27;99090.34;;;16.67;52.78
38880;BME280;25887;30.194;-97.880;2023-12-20T05:28:55;99092.94;;;16.67;52.62
38880;BME280;25887;30.194;-97.880;2023-12-20T05:31:21;99093.81;;;16.66;52.48
38880;BME280;25887;30.194;-97.880;2023-12-20T05:33:47;99098.16;;;16.66;52.70
38880;BME280;25887;30.194;-97.880;2023-12-20T05:36:13;99097.31;;;16.65;52.71
38880;BME280;25887;30.194;-97.880;2023-12-20T05:38:42;99088.63;;;16.65;52.70
38880;BME280;25887;30.194;-97.880;2023-12-20T05:41:08;99096.41;;;16.65;52.51
38880;BME280;25887;30.194;-97.880;2023-12-20T05:43:35;99092.97;;;16.64;52.68
38880;BME280;25887;30.194;-97.880;2023-12-20T05:46:01;99086.91;;;16.64;52.70
38880;BME280;25887;30.194;-97.880;2023-12-20T05:48:27;99088.63;;;16.65;52.60
38880;BME280;25887;30.194;-97.880;2023-12-20T05:50:53;99088.66;;;16.63;52.64
38880;BME280;25887;30.194;-97.880;2023-12-20T05:53:19;99095.59;;;16.61;52.62
38880;BME280;25887;30.194;-97.880;2023-12-20T05:55:46;99098.19;;;16.63;52.46
38880;BME280;25887;30.194;-97.880;2023-12-20T05:58:12;99086.09;;;16.62;52.59
38880;BME280;25887;30.194;-97.880;2023-12-20T06:00:38;99082.59;;;16.63;52.59
38880;BME280;25887;30.194;-97.880;2023-12-20T06:03:05;99084.34;;;16.62;52.68
38880;BME280;25887;30.194;-97.880;2023-12-20T06:05:32;99086.94;;;16.62;52.67
38880;BME280;25887;30.194;-97.880;2023-12-20T06:07:58;99085.19;;;16.63;52.59
38880;BME280;25887;30.194;-97.880;2023-12-20T06:10:29;99090.41;;;16.61;52.93
38880;BME280;25887;30.194;-97.880;2023-12-20T06:12:55;99088.66;;;16.63;52.88
38880;BME280;25887;30.194;-97.880;2023-12-20T06:15:22;99084.34;;;16.62;52.54
38880;BME280;25887;30.194;-97.880;2023-12-20T06:17:48;99082.59;;;16.63;52.69
38880;BME280;25887;30.194;-97.880;2023-12-20T06:20:15;99078.34;;;16.60;52.91
38880;BME280;25887;30.194;-97.880;2023-12-20T06:22:41;99086.97;;;16.61;52.47
38880;BME280;25887;30.194;-97.880;2023-12-20T06:25:08;99090.47;;;16.58;52.79
38880;BME280;25887;30.194;-97.880;2023-12-20T06:27:34;99091.31;;;16.59;52.88
38880;BME280;25887;30.194;-97.880;2023-12-20T06:30:00;99086.13;;;16.59;52.86
38880;BME280;25887;30.194;-97.880;2023-12-20T06:32:28;99087.88;;;16.58;53.05
38880;BME280;25887;30.194;-97.880;2023-12-20T06:34:55;99096.50;;;16.57;52.92
38880;BME280;25887;30.194;-97.880;2023-12-20T06:37:21;99091.34;;;16.56;52.79
38880;BME280;25887;30.194;-97.880;2023-12-20T06:39:47;99097.44;;;16.53;52.89
38880;BME280;25887;30.194;-97.880;2023-12-20T06:42:13;99085.34;;;16.52;52.94
38880;BME280;25887;30.194;-97.880;2023-12-20T06:44:39;99092.31;;;16.50;52.68
38880;BME280;25887;30.194;-97.880;2023-12-20T06:47:06;99094.91;;;16.50;52.79
38880;BME280;25887;30.194;-97.880;2023-12-20T06:49:32;99085.41;;;16.48;52.76
38880;BME280;25887;30.194;-97.880;2023-12-20T06:51:58;99085.44;;;16.44;52.62
38880;BME280;25887;30.194;-97.880;2023-12-20T06:54:25;99082.84;;;16.44;52.85
38880;BME280;25887;30.194;-97.880;2023-12-20T06:56:51;99083.75;;;16.42;52.74
38880;BME280;25887;30.194;-97.880;2023-12-20T06:59:17;99085.50;;;16.40;52.81
38880;BME280;25887;30.194;-97.880;2023-12-20T07:01:48;99090.69;;;16.40;53.06
38880;BME280;25887;30.194;-97.880;2023-12-20T07:04:16;99076.06;;;16.36;53.29
38880;BME280;25887;30.194;-97.880;2023-12-20T07:06:48;99073.47;;;16.36;52.91
38880;BME280;25887;30.194;-97.880;2023-12-20T07:09:17;99076.06;;;16.34;52.93
38880;BME280;25887;30.194;-97.880;2023-12-20T07:11:43;99073.47;;;16.33;53.10
38880;BME280;25887;30.194;-97.880;2023-12-20T07:14:09;99075.22;;;16.31;53.21
38880;BME280;25887;30.194;-97.880;2023-12-20T07:16:36;99078.72;;;16.28;53.42
38880;BME280;25887;30.194;-97.880;2023-12-20T07:19:02;99065.78;;;16.27;53.22
38880;BME280;25887;30.194;-97.880;2023-12-20T07:21:28;99073.56;;;16.25;53.32
38880;BME280;25887;30.194;-97.880;2023-12-20T07:23:55;99070.16;;;16.22;53.42
38880;BME280;25887;30.194;-97.880;2023-12-20T07:26:21;99070.22;;;16.19;53.36
38880;BME280;25887;30.194;-97.880;2023-12-20T07:28:47;99075.38;;;16.17;53.44
38880;BME280;25887;30.194;-97.880;2023-12-20T07:31:15;99068.50;;;16.14;53.63
38880;BME280;25887;30.194;-97.880;2023-12-20T07:33:42;99071.16;;;16.11;53.63
38880;BME280;25887;30.194;-97.880;2023-12-20T07:36:08;99060.81;;;16.08;53.71
38880;BME280;25887;30.194;-97.880;2023-12-20T07:38:35;99055.63;;;16.07;53.81
38880;BME280;25887;30.194;-97.880;2023-12-20T07:41:01;99058.28;;;16.04;53.65
38880;BME280;25887;30.194;-97.880;2023-12-20T07:43:27;99057.41;;;16.02;53.88
38880;BME280;25887;30.194;-97.880;2023-12-20T07:45:53;99052.25;;;16.00;53.97
38880;BME280;25887;30.194;-97.880;2023-12-20T07:48:20;99061.78;;;15.98;53.90
38880;BME280;25887;30.194;-97.880;2023-12-20T07:50:46;99059.22;;;15.97;53.94
38880;BME280;25887;30.194;-97.880;2023-12-20T07:53:12;99060.09;;;15.96;54.05
38880;BME280;25887;30.194;-97.880;2023-12-20T07:55:39;99055.78;;;15.93;53.99
38880;BME280;25887;30.194;-97.880;2023-12-20T07:58:05;99061.81;;;15.94;54.18
38880;BME280;25887;30.194;-97.880;2023-12-20T08:00:31;99056.66;;;15.92;54.13
38880;BME280;25887;30.194;-97.880;2023-12-20T08:02:58;99054.06;;;15.92;54.22
38880;BME280;25887;30.194;-97.880;2023-12-20T08:05:24;99060.13;;;15.91;54.05
38880;BME280;25887;30.194;-97.880;2023-12-20T08:07:50;99061.84;;;15.92;54.20
38880;BME280;25887;30.194;-97.880;2023-12-20T08:10:16;99061.00;;;15.92;54.12
38880;BME280;25887;30.194;-97.880;2023-12-20T08:12:45;99054.94;;;15.91;54.02
38880;BME280;25887;30.194;-97.880;2023-12-20T08:15:11;99053.25;;;15.90;54.21
38880;BME280;25887;30.194;-97.880;2023-12-20T08:17:37;99054.94;;;15.91;54.21
38880;BME280;25887;30.194;-97.880;2023-12-20T08:20:03;99054.09;;;15.91;54.21
38880;BME280;25887;30.194;-97.880;2023-12-20T08:22:30;99054.94;;;15.91;54.54
38880;BME280;25887;30.194;-97.880;2023-12-20T08:24:56;99053.25;;;15.90;54.27
38880;BME280;25887;30.194;-97.880;2023-12-20T08:27:22;99046.34;;;15.86;54.16
38880;BME280;25887;30.194;-97.880;2023-12-20T08:29:49;99044.63;;;15.88;54.10
38880;BME280;25887;30.194;-97.880;2023-12-20T08:32:16;99038.59;;;15.86;54.17
38880;BME280;25887;30.194;-97.880;2023-12-20T08:34:42;99042.06;;;15.85;54.53
38880;BME280;25887;30.194;-97.880;2023-12-20T08:37:08;99040.38;;;15.82;54.39
38880;BME280;25887;30.194;-97.880;2023-12-20T08:39:35;99030.91;;;15.80;54.37
38880;BME280;25887;30.194;-97.880;2023-12-20T08:42:01;99034.34;;;15.79;54.27
38880;BME280;25887;30.194;-97.880;2023-12-20T08:44:27;99040.38;;;15.79;54.50
38880;BME280;25887;30.194;-97.880;2023-12-20T08:46:53;99040.41;;;15.78;54.42
38880;BME280;25887;30.194;-97.880;2023-12-20T08:49:22;99044.75;;;15.76;54.63
38880;BME280;25887;30.194;-97.880;2023-12-20T08:51:49;99049.06;;;15.75;54.46
38880;BME280;25887;30.194;-97.880;2023-12-20T08:54:15;99040.44;;;15.75;54.38
38880;BME280;25887;30.194;-97.880;2023-12-20T08:56:42;99040.47;;;15.73;54.36
38880;BME280;25887;30.194;-97.880;2023-12-20T08:59:09;99038.75;;;15.72;54.38
38880;BME280;25887;30.194;-97.880;2023-12-20T09:01:35;99032.72;;;15.69;54.43
38880;BME280;25887;30.194;-97.880;2023-12-20T09:04:01;99034.47;;;15.68;54.53
38880;BME280;25887;30.194;-97.880;2023-12-20T09:06:28;99033.59;;;15.68;54.67
38880;BME280;25887;30.194;-97.880;2023-12-20T09:08:54;99033.66;;;15.65;54.28
38880;BME280;25887;30.194;-97.880;2023-12-20T09:11:20;99020.69;;;15.63;54.52
38880;BME280;25887;30.194;-97.880;2023-12-20T09:13:46;99017.25;;;15.61;54.47
38880;BME280;25887;30.194;-97.880;2023-12-20T09:16:12;99028.50;;;15.58;54.58
38880;BME280;25887;30.194;-97.880;2023-12-20T09:18:41;99025.06;;;15.55;54.48
38880;BME280;25887;30.194;-97.880;2023-12-20T09:21:08;99029.41;;;15.51;54.65
38880;BME280;25887;30.194;-97.880;2023-12-20T09:23:34;99026.00;;;15.49;54.65
38880;BME280;25887;30.194;-97.880;2023-12-20T09:26:02;99028.59;;;15.46;54.75
38880;BME280;25887;30.194;-97.880;2023-12-20T09:28:29;99032.03;;;15.47;54.62
38880;BME280;25887;30.194;-97.880;2023-12-20T09:30:56;99030.31;;;15.46;54.71
38880;BME280;25887;30.194;-97.880;2023-12-20T09:33:23;99026.91;;;15.42;54.94
38880;BME280;25887;30.194;-97.880;2023-12-20T09:35:50;99023.47;;;15.42;54.68
38880;BME280;25887;30.194;-97.880;2023-12-20T09:38:16;99026.06;;;15.40;54.80
38880;BME280;25887;30.194;-97.880;2023-12-20T09:40:43;99026.94;;;15.39;54.94
38880;BME280;25887;30.194;-97.880;2023-12-20T09:43:13;99020.91;;;15.37;54.83
38880;BME280;25887;30.194;-97.880;2023-12-20T09:45:42;99029.56;;;15.36;54.83
38880;BME280;25887;30.194;-97.880;2023-12-20T09:48:11;99030.47;;;15.33;54.58
38880;BME280;25887;30.194;-97.880;2023-12-20T09:50:40;99033.94;;;15.29;54.68
38880;BME280;25887;30.194;-97.880;2023-12-20T09:53:08;99037.41;;;15.27;54.82
38880;BME280;25887;30.194;-97.880;2023-12-20T09:55:36;99046.91;;;15.26;54.94
38880;BME280;25887;30.194;-97.880;2023-12-20T09:58:02;99040.03;;;15.22;54.85
38880;BME280;25887;30.194;-97.880;2023-12-20T10:00:29;99053.84;;;15.21;54.81
38880;BME280;25887;30.194;-97.880;2023-12-20T10:02:59;99056.44;;;15.20;54.86
38880;BME280;25887;30.194;-97.880;2023-12-20T10:05:31;99049.56;;;15.16;54.70
38880;BME280;25887;30.194;-97.880;2023-12-20T10:07:58;99053.06;;;15.12;54.76
38880;BME280;25887;30.194;-97.880;2023-12-20T10:10:25;99049.63;;;15.08;54.78
38880;BME280;25887;30.194;-97.880;2023-12-20T10:13:21;99037.53;;;15.09;54.87
38880;BME280;25887;30.194;-97.880;2023-12-20T10:15:47;99047.09;;;15.00;54.73
38880;BME280;25887;30.194;-97.880;2023-12-20T10:18:15;99037.66;;;14.96;54.88
38880;BME280;25887;30.194;-97.880;2023-12-20T10:20:41;99035.91;;;14.94;54.69
38880;BME280;25887;30.194;-97.880;2023-12-20T10:23:08;99030.78;;;14.91;54.76
38880;BME280;25887;30.194;-97.880;2023-12-20T10:25:35;99031.66;;;14.88;54.89
38880;BME280;25887;30.194;-97.880;2023-12-20T10:28:17;99017.84;;;14.89;54.74
38880;BME280;25887;30.194;-97.880;2023-12-20T10:30:44;99018.75;;;14.84;54.88
38880;BME280;25887;30.194;-97.880;2023-12-20T10:33:10;99023.06;;;14.83;55.07
38880;BME280;25887;30.194;-97.880;2023-12-20T10:35:38;99015.31;;;14.82;54.86
38880;BME280;25887;30.194;-97.880;2023-12-20T10:38:06;99021.38;;;14.79;55.00
38880;BME280;25887;30.194;-97.880;2023-12-20T10:40:36;99015.34;;;14.77;55.19
38880;BME280;25887;30.194;-97.880;2023-12-20T10:43:03;99015.34;;;14.77;54.67
38880;BME280;25887;30.194;-97.880;2023-12-20T10:45:31;99005.88;;;14.74;55.05
38880;BME280;25887;30.194;-97.880;2023-12-20T10:48:00;98997.28;;;14.74;55.29
38880;BME280;25887;30.194;-97.880;2023-12-20T10:50:28;99005.06;;;14.71;54.75
38880;BME280;25887;30.194;-97.880;2023-12-20T10:52:56;99004.19;;;14.72;55.28
38880;BME280;25887;30.194;-97.880;2023-12-20T10:55:23;99009.34;;;14.72;55.42
38880;BME280;25887;30.194;-97.880;2023-12-20T10:57:55;99004.19;;;14.72;55.22
38880;BME280;25887;30.194;-97.880;2023-12-20T11:00:26;98999.88;;;14.72;55.07
38880;BME280;25887;30.194;-97.880;2023-12-20T11:02:53;98999.88;;;14.71;55.34
38880;BME280;25887;30.194;-97.880;2023-12-20T11:08:06;99004.22;;;14.67;55.24
38880;BME280;25887;30.194;-97.880;2023-12-20T11:13:31;99007.69;;;14.63;55.24
38880;BME280;25887;30.194;-97.880;2023-12-20T11:15:59;99005.97;;;14.61;55.14
38880;BME280;25887;30.194;-97.880;2023-12-20T11:18:31;99012.00;;;14.61;55.34
38880;BME280;25887;30.194;-97.880;2023-12-20T11:21:04;99020.59;;;14.65;55.05
38880;BME280;25887;30.194;-97.880;2023-12-20T11:23:32;99024.09;;;14.55;54.97
38880;BME280;25887;30.194;-97.880;2023-12-20T11:26:00;99026.69;;;14.53;54.86
38880;BME280;25887;30.194;-97.880;2023-12-20T11:28:27;99028.44;;;14.49;55.00
38880;BME280;25887;30.194;-97.880;2023-12-20T11:30:56;99028.44;;;14.46;55.20
38880;BME280;25887;30.194;-97.880;2023-12-20T11:33:29;99031.03;;;14.42;55.42
38880;BME280;25887;30.194;-97.880;2023-12-20T11:35:56;99030.19;;;14.40;54.88
38880;BME280;25887;30.194;-97.880;2023-12-20T11:38:23;99030.22;;;14.35;54.97
38880;BME280;25887;30.194;-97.880;2023-12-20T11:40:50;99039.69;;;14.32;55.49
38880;BME280;25887;30.194;-97.880;2023-12-20T11:43:36;99047.47;;;14.33;54.96
38880;BME280;25887;30.194;-97.880;2023-12-20T11:46:07;99044.03;;;14.28;55.10
38880;BME280;25887;30.194;-97.880;2023-12-20T11:48:38;99051.81;;;14.25;55.31
38880;BME280;25887;30.194;-97.880;2023-12-20T11:51:12;99061.25;;;14.23;55.26
38880;BME280;25887;30.194;-97.880;2023-12-20T11:53:40;99050.94;;;14.20;55.28
38880;BME280;25887;30.194;-97.880;2023-12-20T11:56:07;99049.22;;;14.16;55.28
38880;BME280;25887;30.194;-97.880;2023-12-20T11:58:36;99057.84;;;14.15;55.13
38880;BME280;25887;30.194;-97.880;2023-12-20T12:01:03;99060.47;;;14.12;55.18
38880;BME280;25887;30.194;-97.880;2023-12-20T12:03:30;99063.06;;;14.10;55.24
38880;BME280;25887;30.194;-97.880;2023-12-20T12:05:57;99067.34;;;14.07;55.09
38880;BME280;25887;30.194;-97.880;2023-12-20T12:08:23;99069.97;;;14.04;55.04
38880;BME280;25887;30.194;-97.880;2023-12-20T12:10:50;99077.72;;;13.99;55.10
38880;BME280;25887;30.194;-97.880;2023-12-20T12:13:16;99086.31;;;13.98;55.60
38880;BME280;25887;30.194;-97.880;2023-12-20T12:15:48;99100.13;;;13.96;55.25
38880;BME280;25887;30.194;-97.880;2023-12-20T12:18:16;99088.94;;;13.90;55.03
38880;BME280;25887;30.194;-97.880;2023-12-20T12:20:44;99097.53;;;13.89;55.18
38880;BME280;25887;30.194;-97.880;2023-12-20T12:23:13;99094.13;;;13.86;55.14
38880;BME280;25887;30.194;-97.880;2023-12-20T12:25:40;99094.09;;;13.84;55.25
38880;BME280;25887;30.194;-97.880;2023-12-20T12:28:07;99101.84;;;13.83;55.19
38880;BME280;25887;30.194;-97.880;2023-12-20T12:30:33;99117.34;;;13.81;54.99
38880;BME280;25887;30.194;-97.880;2023-12-20T12:32:59;99124.25;;;13.82;55.09
38880;BME280;25887;30.194;-97.880;2023-12-20T12:35:25;99126.84;;;13.79;55.13
38880;BME280;25887;30.194;-97.880;2023-12-20T12:37:52;99134.59;;;13.79;55.15
38880;BME280;25887;30.194;-97.880;2023-12-20T12:40:18;99141.44;;;13.77;54.98
38880;BME280;25887;30.194;-97.880;2023-12-20T12:42:45;99155.22;;;13.76;55.24
38880;BME280;25887;30.194;-97.880;2023-12-20T12:45:12;99159.56;;;13.70;54.98